Thursday, January 17, 2019, 5:25 AM CST
Back to Local

KIKK, Kankakee, Greater Kankakee Airport

Location: Kankakee, IL, United States Lat: 41.071
Local Time: 5:25 AM CST (11:25 GMT) Lon: -87.846
Time Zone: US/Central Elev: 629 ft

Show me the last for .
Show Coded

Time T Td Feel RH Dir Speed Gust Alt SLP Vis Weather Sky Remarks
2019-01-17 04:55 28 26 - 92 - Calm - 30.12 - 4 -DZ OVC008 None
2019-01-17 04:35 28 25 - 88 - Calm - 30.13 - 7 OVC008 None
2019-01-17 04:15 28 25 - 88 - Calm - 30.14 - 10 OVC008 None
2019-01-17 03:55 28 24 - 86 - Calm - 30.14 - 10 OVC008 None
2019-01-17 03:35 28 23 - 84 - Calm - 30.15 - 10 OVC010 None
2019-01-17 03:15 28 23 - 81 - Calm - 30.17 - 10 OVC010 None
2019-01-17 02:55 28 22 - 79 - Calm - 30.18 - 10 OVC012 None
2019-01-17 02:35 28 22 - 79 - Calm - 30.19 - 10 OVC012 None
2019-01-17 02:15 28 22 - 78 - Calm - 30.19 - 10 OVC014 None
2019-01-17 01:55 27 21 - 77 - Calm - 30.19 - 10 OVC016 None
2019-01-17 01:35 28 21 - 76 - Calm - 30.20 - 10 OVC020 None
2019-01-17 01:15 28 21 - 76 - Calm - 30.20 - 10 OVC020 None
2019-01-17 00:55 28 21 - 76 - Calm - 30.20 - 10 OVC020 None
2019-01-17 00:35 28 21 - 76 - Calm - 30.20 - 10 OVC022 None
2019-01-17 00:15 28 21 19 76 70° 9 - 30.22 - 10 OVC026 None
2019-01-16 23:55 28 21 17 75 70° 13 - 30.21 - 10 OVC026 6-hr Min Temp (12am): 27.9°F
6-hr Max Temp (12am): 32.0°F
24-hr Min Temp (12am): 27.9°F
24-hr Max Temp (12am): 34.9°F
2019-01-16 23:35 28 22 18 75 70° 12 - 30.22 - 10 OVC024 None
2019-01-16 23:15 28 22 18 76 90° 12 - 30.23 - 10 OVC024 None
2019-01-16 22:55 28 22 18 76 80° 12 - 30.24 - 10 OVC026 None
2019-01-16 22:35 29 22 19 75 80° 12 - 30.24 - 10 OVC026 None
2019-01-16 22:15 29 23 19 76 80° 13 - 30.25 - 10 OVC026 None
2019-01-16 21:55 29 23 19 76 80° 14 - 30.25 - 10 OVC028 None
2019-01-16 21:35 29 23 19 76 80° 13 - 30.25 - 10 OVC028 None
2019-01-16 21:15 30 23 20 75 80° 12 - 30.25 - 10 OVC030 None
2019-01-16 20:55 30 23 19 76 80° 15 - 30.25 - 10 OVC030 None
2019-01-16 20:35 30 24 21 77 70° 10 - 30.26 - 10 OVC032 None
2019-01-16 20:15 30 24 20 77 40° 13 - 30.26 - 10 OVC032 None
2019-01-16 19:55 30 24 21 78 40° 12 - 30.27 - 10 OVC032 None
2019-01-16 19:35 30 25 21 79 50° 12 - 30.27 - 10 OVC032 None
2019-01-16 19:15 31 25 21 78 50° 12 - 30.27 - 10 OVC032 None
2019-01-16 18:55 31 25 23 79 70° 9 - 30.28 - 10 OVC032 None
2019-01-16 18:35 31 25 22 77 70° 10 - 30.28 - 10 OVC032 None
2019-01-16 18:15 32 24 25 71 60° 7 - 30.27 - 10 OVC032 None
2019-01-16 17:55 32 24 - 71 - Calm - 30.27 - 10 OVC032 6-hr Min Temp (6pm): 31.6°F
6-hr Max Temp (6pm): 33.4°F
2019-01-16 17:35 32 25 - 77 - Calm - 30.27 - 10 OVC030 None
2019-01-16 17:15 32 25 - 74 - Calm - 30.27 - 10 OVC030 None
2019-01-16 16:55 32 25 - 74 - Calm - 30.25 - 10 OVC030 None
2019-01-16 16:35 33 26 - 75 - Calm - 30.25 - 10 OVC030 None
2019-01-16 16:15 33 25 - 73 - Calm - 30.25 - 10 OVC030 None
2019-01-16 15:55 33 26 - 74 - Calm - 30.24 - 10 OVC028 None
2019-01-16 15:35 33 26 - 74 - Calm - 30.24 - 10 OVC028 None
2019-01-16 15:15 33 25 - 72 - Calm - 30.25 - 10 OVC030 None
2019-01-16 14:55 33 25 26 71 60° 9 - 30.24 - 10 OVC030 None
2019-01-16 14:35 33 26 27 74 60° 8 - 30.24 - 10 OVC030 None
2019-01-16 14:15 33 26 - 72 - Calm - 30.25 - 10 OVC030 None
2019-01-16 13:55 33 26 - 73 - Calm - 30.24 - 10 OVC030 None
2019-01-16 13:35 33 26 - 74 - Calm - 30.24 - 10 OVC030 None
2019-01-16 13:15 33 25 - 72 - Calm - 30.24 - 10 OVC030 None
2019-01-16 12:55 33 25 - 71 - Calm - 30.24 - 10 OVC030 None
2019-01-16 12:35 33 25 25 71 40° 10 - 30.24 - 10 OVC030 None
2019-01-16 12:15 33 25 - 72 - Calm - 30.26 - 10 OVC030 None
2019-01-16 11:55 33 25 26 70 50° 9 - 30.26 - 10 OVC030 6-hr Min Temp (12pm): 32.9°F
6-hr Max Temp (12pm): 34.9°F
2019-01-16 11:35 33 26 - 73 - Calm - 30.26 - 10 OVC030 None
2019-01-16 11:15 33 26 28 73 50° 6 - 30.27 - 10 OVC030 None
2019-01-16 10:55 33 26 28 74 50° 6 - 30.27 - 10 SCT021 OVC030 None
2019-01-16 10:35 34 27 - 74 - Calm - 30.27 - 10 OVC030 None
2019-01-16 10:15 34 28 - 80 - Calm - 30.27 - 10 OVC026 None
2019-01-16 09:55 33 29 - 82 - Calm - 30.26 - 10 OVC026 None
2019-01-16 09:35 33 28 - 79 - Calm - 30.25 - 10 OVC024 None
2019-01-16 09:15 33 28 - 79 - Calm - 30.24 - 10 OVC024 None
2019-01-16 08:55 33 28 - 83 - Calm - 30.23 - 10 OVC024 None
2019-01-16 08:35 33 28 - 80 - Calm - 30.22 - 10 OVC024 None
2019-01-16 08:15 34 27 - 76 - Calm - 30.22 - 10 OVC022 None
2019-01-16 07:55 34 27 29 75 340° 5 - 30.21 - 10 OVC022 None
2019-01-16 07:35 33 29 29 84 350° 5 - 30.20 - 10 OVC020 None
2019-01-16 07:15 33 29 28 84 320° 6 - 30.20 - 10 OVC020 None
2019-01-16 06:55 33 29 30 84 310° 3 - 30.19 - 10 OVC020 None
2019-01-16 06:35 34 29 31 83 340° 3 - 30.18 - 10 OVC020 None
2019-01-16 06:15 33 29 29 85 300° 5 - 30.18 - 10 OVC018 None
2019-01-16 05:55 33 31 - 90 - Calm - 30.17 - 10 OVC018 6-hr Min Temp (6am): 32.0°F
6-hr Max Temp (6am): 32.9°F
2019-01-16 05:35 33 31 29 92 290° 5 - 30.16 - 10 OVC018 None

Support USWX by starting your Amazon purchase here.